»·PEaware :: N768JR KFLG-KPRC

N768JR :: KFLG-KPRC

FLIGHT INFORMATION

Flight Status: Arrived
Operator: Privately registered:
United States
More flights under this callsign
Pilot: John U. (34606)
Aircraft: CIRRUS VISIONJET
(SF50)
More flights by this aircraft type
Origin: KFLG Flagstaff Pulliam
United States
Destination: KPRC Love
United States
More flights between these airports :: More routes between these airports
Route: FLG1 OATES V12 JUWSO CRADI
File this flight plan on PilotEdge
Remarks:
Altitude:
(Current/Filed)
12,000ft
Speed:
(Current/Filed)
210kts
Departed: 26-Oct-23 03:56 PM
Arrived: 26-Oct-23 04:26 PM
Distance/Time
Traveled:
47nm/0:30
Distance/Time
To Go:
Arrived

Flight Plot

Page will automatically refresh every two minutes.

Flight plan parsing failed; only flown route is shown


Map Options




Map Legend


Flown Route
Filed Route
Departure Airport
Arrival Airport
Navaid (VOR, NDB)
Fix

Horizontal Profiles

Position Reports

Time Latitude Longitude Heading Altitude Ground
Speed
26-Oct-23 14:52 35.139059 -111.677563 11 7015ft 0kts
26-Oct-23 14:53 35.139059 -111.677563 11 7015ft 0kts
26-Oct-23 14:54 35.139059 -111.677563 11 7015ft 0kts
26-Oct-23 14:55 35.139059 -111.677563 11 7015ft 0kts
26-Oct-23 14:56 35.139059 -111.677563 11 7015ft 0kts
26-Oct-23 14:57 35.139059 -111.677563 11 7015ft 0kts
26-Oct-23 14:58 35.139059 -111.677563 11 7015ft 0kts
26-Oct-23 14:59 35.139059 -111.677563 11 7015ft 0kts
26-Oct-23 15:00 35.139059 -111.677563 11 7015ft 0kts
26-Oct-23 15:01 35.139059 -111.677563 11 7015ft 0kts
26-Oct-23 15:04 35.139059 -111.677563 11 7015ft 0kts
26-Oct-23 15:05 35.139059 -111.677563 11 7015ft 0kts
26-Oct-23 15:06 35.139059 -111.677563 11 7015ft 0kts
26-Oct-23 15:07 35.139059 -111.677563 11 7015ft 0kts
26-Oct-23 15:08 35.139059 -111.677563 11 7015ft 0kts
26-Oct-23 15:12 35.139059 -111.677563 11 7015ft 0kts
26-Oct-23 15:13 35.139059 -111.677563 11 7015ft 0kts
26-Oct-23 15:14 35.139059 -111.677563 11 7015ft 0kts
26-Oct-23 15:15 35.139059 -111.677563 11 7015ft 0kts
26-Oct-23 15:16 35.139059 -111.677563 11 7015ft 0kts
26-Oct-23 15:17 35.139059 -111.677563 11 7015ft 0kts
26-Oct-23 15:18 35.139059 -111.677563 11 7015ft 0kts
26-Oct-23 15:19 35.139059 -111.677563 11 7015ft 0kts
26-Oct-23 15:20 35.139059 -111.677563 11 7015ft 0kts
26-Oct-23 15:21 35.139059 -111.677563 11 7015ft 0kts
26-Oct-23 15:22 35.139059 -111.677563 11 7015ft 0kts
26-Oct-23 15:23 35.139059 -111.677563 11 7015ft 0kts
26-Oct-23 15:24 35.139059 -111.677563 11 7015ft 0kts
26-Oct-23 15:25 35.139059 -111.677563 11 7015ft 0kts
26-Oct-23 15:26 35.139059 -111.677563 11 7015ft 0kts
26-Oct-23 15:27 35.139059 -111.677563 11 7015ft 0kts
26-Oct-23 15:28 35.139059 -111.677563 11 7015ft 0kts
26-Oct-23 15:29 35.139059 -111.677563 11 7015ft 0kts
26-Oct-23 15:30 35.139059 -111.677563 11 7015ft 0kts
26-Oct-23 15:31 35.139059 -111.677563 11 7015ft 0kts
26-Oct-23 15:32 35.139059 -111.677563 11 7015ft 0kts
26-Oct-23 15:33 35.139059 -111.677563 11 7015ft 0kts
26-Oct-23 15:34 35.139059 -111.677563 11 7015ft 0kts
26-Oct-23 15:35 35.139059 -111.677563 11 7015ft 0kts
26-Oct-23 15:36 35.139059 -111.677563 11 7015ft 0kts
26-Oct-23 15:37 35.139059 -111.677563 11 7015ft 0kts
26-Oct-23 15:38 35.139059 -111.677563 11 7015ft 0kts
26-Oct-23 15:39 35.139059 -111.677563 11 7015ft 0kts
26-Oct-23 15:40 35.139059 -111.677563 11 7015ft 0kts
26-Oct-23 15:41 35.139157 -111.677541 9 7015ft 2kts
26-Oct-23 15:42 35.139532 -111.676983 128 7015ft 6kts
26-Oct-23 15:43 35.138657 -111.675781 130 7015ft 5kts
26-Oct-23 15:44 35.137963 -111.673525 41 7015ft 11kts
26-Oct-23 15:45 35.140290 -111.671041 41 7015ft 6kts
26-Oct-23 15:46 35.141007 -111.670285 40 7015ft 5kts
26-Oct-23 15:47 35.143109 -111.668042 40 7015ft 14kts
26-Oct-23 15:48 35.146015 -111.664950 42 7015ft 7kts
26-Oct-23 15:49 35.146972 -111.663936 40 7015ft 3kts
26-Oct-23 15:50 35.147898 -111.662950 41 7015ft 6kts
26-Oct-23 15:51 35.149420 -111.661328 41 7015ft 2kts
26-Oct-23 15:52 35.149892 -111.660592 103 7015ft 0kts
26-Oct-23 15:53 35.149892 -111.660592 103 7015ft 0kts
26-Oct-23 15:54 35.149892 -111.660592 103 7015ft 0kts
26-Oct-23 15:55 35.147276 -111.661753 221 7015ft 60kts
26-Oct-23 15:56 35.122797 -111.673964 157 8008ft 117kts
26-Oct-23 15:57 35.091922 -111.679823 189 9385ft 119kts
26-Oct-23 15:58 35.058385 -111.685194 185 10693ft 125kts
26-Oct-23 15:59 35.023376 -111.689731 184 11929ft 130kts
26-Oct-23 16:00 34.985318 -111.694627 184 12030ft 133kts
26-Oct-23 16:01 34.948712 -111.699321 184 12014ft 132kts
26-Oct-23 16:02 34.912295 -111.703984 184 11998ft 131kts
26-Oct-23 16:03 34.876585 -111.710914 216 11981ft 131kts
26-Oct-23 16:04 34.861373 -111.751410 251 11977ft 130kts
26-Oct-23 16:05 34.851898 -111.794621 252 11232ft 132kts
26-Oct-23 16:06 34.842649 -111.837671 252 10531ft 131kts
26-Oct-23 16:07 34.833570 -111.879936 251 9977ft 119kts
26-Oct-23 16:08 34.825482 -111.917392 251 9986ft 118kts
26-Oct-23 16:09 34.816479 -111.959078 251 9984ft 135kts
26-Oct-23 16:10 34.806554 -112.005000 252 9983ft 143kts
26-Oct-23 16:11 34.799529 -112.053157 279 9982ft 149kts
26-Oct-23 16:12 34.811944 -112.095633 289 9978ft 120kts
26-Oct-23 16:13 34.823688 -112.131079 289 9858ft 110kts
26-Oct-23 16:14 34.835148 -112.165591 289 9321ft 109kts
26-Oct-23 16:15 34.846148 -112.198701 288 8980ft 94kts
26-Oct-23 16:16 34.835685 -112.223460 221 8926ft 86kts
26-Oct-23 16:17 34.818257 -112.243465 219 8587ft 85kts
26-Oct-23 16:18 34.800620 -112.262782 219 8237ft 84kts
26-Oct-23 16:19 34.783082 -112.281699 219 7923ft 84kts
26-Oct-23 16:20 34.765708 -112.300346 219 7648ft 88kts
26-Oct-23 16:21 34.745498 -112.322015 220 7173ft 106kts
26-Oct-23 16:22 34.721999 -112.347202 220 6559ft 118kts
26-Oct-23 16:23 34.696911 -112.374065 220 5897ft 121kts
26-Oct-23 16:24 34.671551 -112.401193 221 5241ft 121kts
26-Oct-23 16:25 34.654674 -112.419842 304 4990ft 14kts
26-Oct-23 16:26 34.654885 -112.420161 308 4989ft 0kts
26-Oct-23 16:27 34.655089 -112.420436 313 4987ft 0kts
26-Oct-23 16:28 34.654879 -112.421422 232 4989ft 0kts

Navigation Log

Ident Type
Flight plan parsing failed, navigation log unavailable